sensor_id;sensor_type;location;lat;lon;timestamp;pressure;altitude;pressure_sealevel;temperature
63689;BMP280;54895;40.928;14.480;2022-11-03T00:02:02;101916.03;;;21.80
63689;BMP280;54895;40.928;14.480;2022-11-03T00:04:28;101919.69;;;21.49
63689;BMP280;54895;40.928;14.480;2022-11-03T00:06:54;101902.31;;;21.52
63689;BMP280;54895;40.928;14.480;2022-11-03T00:09:22;101918.06;;;21.63
63689;BMP280;54895;40.928;14.480;2022-11-03T00:11:49;101926.97;;;21.73
63689;BMP280;54895;40.928;14.480;2022-11-03T00:14:16;101916.56;;;21.69
63689;BMP280;54895;40.928;14.480;2022-11-03T00:16:42;101929.59;;;21.90
63689;BMP280;54895;40.928;14.480;2022-11-03T00:21:43;101925.78;;;21.93
63689;BMP280;54895;40.928;14.480;2022-11-03T00:24:10;101913.44;;;21.56
63689;BMP280;54895;40.928;14.480;2022-11-03T00:26:37;101904.06;;;21.57
63689;BMP280;54895;40.928;14.480;2022-11-03T00:29:08;101899.16;;;21.46
63689;BMP280;54895;40.928;14.480;2022-11-03T00:31:36;101894.56;;;21.39
63689;BMP280;54895;40.928;14.480;2022-11-03T00:34:03;101907.09;;;21.61
63689;BMP280;54895;40.928;14.480;2022-11-03T00:36:31;101904.63;;;21.82
63689;BMP280;54895;40.928;14.480;2022-11-03T00:38:58;101904.06;;;21.83
63689;BMP280;54895;40.928;14.480;2022-11-03T00:41:26;101889.06;;;21.56
63689;BMP280;54895;40.928;14.480;2022-11-03T00:43:53;101884.34;;;21.47
63689;BMP280;54895;40.928;14.480;2022-11-03T00:46:20;101881.88;;;21.41
63689;BMP280;54895;40.928;14.480;2022-11-03T00:48:47;101872.28;;;21.31
63689;BMP280;54895;40.928;14.480;2022-11-03T00:51:14;101905.69;;;21.96
63689;BMP280;54895;40.928;14.480;2022-11-03T00:53:46;101923.63;;;22.27
63689;BMP280;54895;40.928;14.480;2022-11-03T00:56:13;101919.97;;;22.06
63689;BMP280;54895;40.928;14.480;2022-11-03T00:58:41;101903.63;;;21.87
63689;BMP280;54895;40.928;14.480;2022-11-03T01:03:35;101912.25;;;21.66
63689;BMP280;54895;40.928;14.480;2022-11-03T01:06:04;101911.41;;;21.47
63689;BMP280;54895;40.928;14.480;2022-11-03T01:08:49;101918.25;;;21.48
63689;BMP280;54895;40.928;14.480;2022-11-03T01:11:18;101906.84;;;21.06
63689;BMP280;54895;40.928;14.480;2022-11-03T01:14:03;101894.97;;;20.84
63689;BMP280;54895;40.928;14.480;2022-11-03T01:16:31;101908.63;;;21.11
63689;BMP280;54895;40.928;14.480;2022-11-03T01:21:55;101907.50;;;21.14
63689;BMP280;54895;40.928;14.480;2022-11-03T01:24:21;101891.63;;;21.10
63689;BMP280;54895;40.928;14.480;2022-11-03T01:26:48;101884.69;;;21.00
63689;BMP280;54895;40.928;14.480;2022-11-03T01:29:14;101892.44;;;21.03
63689;BMP280;54895;40.928;14.480;2022-11-03T01:31:40;101893.31;;;21.06
63689;BMP280;54895;40.928;14.480;2022-11-03T01:34:08;101891.38;;;21.16
63689;BMP280;54895;40.928;14.480;2022-11-03T01:36:34;101889.44;;;21.43
63689;BMP280;54895;40.928;14.480;2022-11-03T01:39:00;101887.66;;;21.11
63689;BMP280;54895;40.928;14.480;2022-11-03T01:41:27;101881.94;;;21.07
63689;BMP280;54895;40.928;14.480;2022-11-03T01:46:31;101875.16;;;20.99
63689;BMP280;54895;40.928;14.480;2022-11-03T01:49:03;101864.88;;;21.14
63689;BMP280;54895;40.928;14.480;2022-11-03T01:51:30;101845.09;;;20.78
63689;BMP280;54895;40.928;14.480;2022-11-03T01:53:58;101878.00;;;21.35
63689;BMP280;54895;40.928;14.480;2022-11-03T01:56:25;101892.50;;;21.56
63689;BMP280;54895;40.928;14.480;2022-11-03T01:58:52;101901.78;;;21.63
63689;BMP280;54895;40.928;14.480;2022-11-03T02:01:19;101874.38;;;21.06
63689;BMP280;54895;40.928;14.480;2022-11-03T02:03:50;101896.59;;;21.48
63689;BMP280;54895;40.928;14.480;2022-11-03T02:06:18;101862.81;;;21.05
63689;BMP280;54895;40.928;14.480;2022-11-03T02:08:45;101853.44;;;21.06
63689;BMP280;54895;40.928;14.480;2022-11-03T02:11:13;101840.81;;;20.75
63689;BMP280;54895;40.928;14.480;2022-11-03T02:13:59;101828.31;;;20.63
63689;BMP280;54895;40.928;14.480;2022-11-03T02:16:25;101801.88;;;20.37
63689;BMP280;54895;40.928;14.480;2022-11-03T02:18:52;101788.59;;;20.31
63689;BMP280;54895;40.928;14.480;2022-11-03T02:23:47;101802.94;;;20.58
63689;BMP280;54895;40.928;14.480;2022-11-03T02:26:15;101807.38;;;20.63
63689;BMP280;54895;40.928;14.480;2022-11-03T02:28:44;101809.13;;;20.85
63689;BMP280;54895;40.928;14.480;2022-11-03T02:33:47;101844.00;;;21.24
63689;BMP280;54895;40.928;14.480;2022-11-03T02:36:17;101833.16;;;20.98
63689;BMP280;54895;40.928;14.480;2022-11-03T02:39:18;101830.44;;;20.98
63689;BMP280;54895;40.928;14.480;2022-11-03T02:41:37;101815.16;;;20.76
63689;BMP280;54895;40.928;14.480;2022-11-03T02:44:04;101807.06;;;20.59
63689;BMP280;54895;40.928;14.480;2022-11-03T02:46:32;101794.81;;;20.41
63689;BMP280;54895;40.928;14.480;2022-11-03T02:48:59;101791.56;;;20.43
63689;BMP280;54895;40.928;14.480;2022-11-03T02:51:25;101805.44;;;20.56
63689;BMP280;54895;40.928;14.480;2022-11-03T02:53:59;101798.16;;;20.49
63689;BMP280;54895;40.928;14.480;2022-11-03T02:56:27;101795.13;;;20.45
63689;BMP280;54895;40.928;14.480;2022-11-03T02:59:02;101812.47;;;20.59
63689;BMP280;54895;40.928;14.480;2022-11-03T03:04:22;101813.09;;;20.50
63689;BMP280;54895;40.928;14.480;2022-11-03T03:06:59;101819.97;;;20.51
63689;BMP280;54895;40.928;14.480;2022-11-03T03:09:32;101812.63;;;20.44
63689;BMP280;54895;40.928;14.480;2022-11-03T03:12:00;101807.91;;;20.45
63689;BMP280;54895;40.928;14.480;2022-11-03T03:14:28;101812.94;;;20.48
63689;BMP280;54895;40.928;14.480;2022-11-03T03:19:46;101812.94;;;20.48
63689;BMP280;54895;40.928;14.480;2022-11-03T03:22:13;101802.50;;;20.45
63689;BMP280;54895;40.928;14.480;2022-11-03T03:24:46;101809.28;;;20.53
63689;BMP280;54895;40.928;14.480;2022-11-03T03:27:16;101821.59;;;20.63
63689;BMP280;54895;40.928;14.480;2022-11-03T03:29:45;101822.19;;;20.62
63689;BMP280;54895;40.928;14.480;2022-11-03T03:32:12;101816.59;;;20.60
63689;BMP280;54895;40.928;14.480;2022-11-03T03:34:40;101809.78;;;20.59
63689;BMP280;54895;40.928;14.480;2022-11-03T03:37:08;101809.44;;;20.72
63689;BMP280;54895;40.928;14.480;2022-11-03T03:39:36;101793.06;;;20.53
63689;BMP280;54895;40.928;14.480;2022-11-03T03:42:03;101802.75;;;20.56
63689;BMP280;54895;40.928;14.480;2022-11-03T03:44:30;101810.53;;;20.52
63689;BMP280;54895;40.928;14.480;2022-11-03T03:46:58;101822.81;;;20.70
63689;BMP280;54895;40.928;14.480;2022-11-03T03:49:25;101841.44;;;20.83
63689;BMP280;54895;40.928;14.480;2022-11-03T03:51:51;101837.44;;;20.84
63689;BMP280;54895;40.928;14.480;2022-11-03T03:54:17;101846.50;;;20.96
63689;BMP280;54895;40.928;14.480;2022-11-03T03:59:10;101844.06;;;20.73
63689;BMP280;54895;40.928;14.480;2022-11-03T04:01:36;101833.28;;;20.49
63689;BMP280;54895;40.928;14.480;2022-11-03T04:04:02;101832.75;;;20.51
63689;BMP280;54895;40.928;14.480;2022-11-03T04:06:28;101836.47;;;20.38
63689;BMP280;54895;40.928;14.480;2022-11-03T04:08:54;101841.63;;;20.44
63689;BMP280;54895;40.928;14.480;2022-11-03T04:11:20;101833.78;;;20.38
63689;BMP280;54895;40.928;14.480;2022-11-03T04:14:06;101839.97;;;20.48
63689;BMP280;54895;40.928;14.480;2022-11-03T04:16:51;101838.56;;;20.47
63689;BMP280;54895;40.928;14.480;2022-11-03T04:22:16;101852.84;;;20.40
63689;BMP280;54895;40.928;14.480;2022-11-03T04:24:44;101845.06;;;20.44
63689;BMP280;54895;40.928;14.480;2022-11-03T04:29:48;101848.69;;;20.39
63689;BMP280;54895;40.928;14.480;2022-11-03T04:32:16;101855.69;;;20.25
63689;BMP280;54895;40.928;14.480;2022-11-03T04:34:46;101844.78;;;20.16
63689;BMP280;54895;40.928;14.480;2022-11-03T04:37:14;101831.00;;;20.04
63689;BMP280;54895;40.928;14.480;2022-11-03T04:39:41;101834.56;;;20.07
63689;BMP280;54895;40.928;14.480;2022-11-03T04:42:13;101828.63;;;20.08
63689;BMP280;54895;40.928;14.480;2022-11-03T04:44:41;101844.03;;;20.40
63689;BMP280;54895;40.928;14.480;2022-11-03T04:47:08;101852.38;;;20.34
63689;BMP280;54895;40.928;14.480;2022-11-03T04:49:36;101832.50;;;19.90
63689;BMP280;54895;40.928;14.480;2022-11-03T04:52:14;101828.56;;;19.91
63689;BMP280;54895;40.928;14.480;2022-11-03T04:54:41;101832.09;;;20.01
63689;BMP280;54895;40.928;14.480;2022-11-03T04:57:12;101826.28;;;20.05
63689;BMP280;54895;40.928;14.480;2022-11-03T04:59:40;101798.44;;;19.70
63689;BMP280;54895;40.928;14.480;2022-11-03T05:02:09;101807.06;;;19.76
63689;BMP280;54895;40.928;14.480;2022-11-03T05:04:37;101804.59;;;19.63
63689;BMP280;54895;40.928;14.480;2022-11-03T05:07:08;101796.50;;;19.63
63689;BMP280;54895;40.928;14.480;2022-11-03T05:09:39;101787.63;;;19.46
63689;BMP280;54895;40.928;14.480;2022-11-03T05:12:06;101782.44;;;19.65
63689;BMP280;54895;40.928;14.480;2022-11-03T05:14:34;101779.47;;;19.53
63689;BMP280;54895;40.928;14.480;2022-11-03T05:17:04;101777.38;;;19.44
63689;BMP280;54895;40.928;14.480;2022-11-03T05:22:33;101779.19;;;19.66
63689;BMP280;54895;40.928;14.480;2022-11-03T05:25:19;101772.19;;;19.63
63689;BMP280;54895;40.928;14.480;2022-11-03T05:27:46;101772.94;;;19.64
63689;BMP280;54895;40.928;14.480;2022-11-03T05:30:12;101759.31;;;19.54
63689;BMP280;54895;40.928;14.480;2022-11-03T05:32:39;101770.81;;;19.79
63689;BMP280;54895;40.928;14.480;2022-11-03T05:35:10;101792.16;;;19.92
63689;BMP280;54895;40.928;14.480;2022-11-03T05:37:42;101797.56;;;19.92
63689;BMP280;54895;40.928;14.480;2022-11-03T05:42:35;101799.59;;;20.09
63689;BMP280;54895;40.928;14.480;2022-11-03T05:45:24;101807.97;;;20.20
63689;BMP280;54895;40.928;14.480;2022-11-03T05:47:49;101828.50;;;20.40
63689;BMP280;54895;40.928;14.480;2022-11-03T05:52:47;101832.47;;;20.39
63689;BMP280;54895;40.928;14.480;2022-11-03T05:55:19;101829.94;;;20.24
63689;BMP280;54895;40.928;14.480;2022-11-03T05:57:46;101820.94;;;20.22
63689;BMP280;54895;40.928;14.480;2022-11-03T06:00:45;101830.41;;;20.30
63689;BMP280;54895;40.928;14.480;2022-11-03T06:03:04;101827.53;;;20.28
63689;BMP280;54895;40.928;14.480;2022-11-03T06:05:31;101842.22;;;20.42
63689;BMP280;54895;40.928;14.480;2022-11-03T06:08:02;101844.28;;;20.51
63689;BMP280;54895;40.928;14.480;2022-11-03T06:10:30;101854.13;;;20.56
63689;BMP280;54895;40.928;14.480;2022-11-03T06:12:59;101864.34;;;20.65
63689;BMP280;54895;40.928;14.480;2022-11-03T06:15:28;101861.47;;;20.63
63689;BMP280;54895;40.928;14.480;2022-11-03T06:17:54;101871.41;;;20.61
63689;BMP280;54895;40.928;14.480;2022-11-03T06:20:21;101871.59;;;20.63
63689;BMP280;54895;40.928;14.480;2022-11-03T06:22:49;101862.41;;;20.41
63689;BMP280;54895;40.928;14.480;2022-11-03T06:27:54;101849.16;;;20.28
63689;BMP280;54895;40.928;14.480;2022-11-03T06:30:30;101846.97;;;20.34
63689;BMP280;54895;40.928;14.480;2022-11-03T06:32:57;101858.09;;;20.38
63689;BMP280;54895;40.928;14.480;2022-11-03T06:35:24;101854.34;;;20.34
63689;BMP280;54895;40.928;14.480;2022-11-03T06:37:50;101847.75;;;20.27
63689;BMP280;54895;40.928;14.480;2022-11-03T06:42:43;101858.69;;;20.54
63689;BMP280;54895;40.928;14.480;2022-11-03T06:45:19;101871.66;;;20.89
63689;BMP280;54895;40.928;14.480;2022-11-03T06:47:45;101878.84;;;20.94
63689;BMP280;54895;40.928;14.480;2022-11-03T06:50:22;101890.75;;;21.25
63689;BMP280;54895;40.928;14.480;2022-11-03T06:52:49;101908.25;;;21.41
63689;BMP280;54895;40.928;14.480;2022-11-03T06:57:48;101919.84;;;21.51
63689;BMP280;54895;40.928;14.480;2022-11-03T07:05:22;101926.53;;;21.50
63689;BMP280;54895;40.928;14.480;2022-11-03T07:07:49;101916.97;;;21.49
63689;BMP280;54895;40.928;14.480;2022-11-03T07:10:17;101917.75;;;21.59
63689;BMP280;54895;40.928;14.480;2022-11-03T07:12:43;101919.38;;;21.45
63689;BMP280;54895;40.928;14.480;2022-11-03T07:15:18;101925.53;;;21.72
63689;BMP280;54895;40.928;14.480;2022-11-03T07:17:45;101923.97;;;21.52
63689;BMP280;54895;40.928;14.480;2022-11-03T07:20:12;101926.00;;;21.34
63689;BMP280;54895;40.928;14.480;2022-11-03T07:22:38;101924.72;;;21.52
63689;BMP280;54895;40.928;14.480;2022-11-03T07:25:05;101944.28;;;21.87
63689;BMP280;54895;40.928;14.480;2022-11-03T07:27:33;101938.50;;;22.00
63689;BMP280;54895;40.928;14.480;2022-11-03T07:32:33;101929.78;;;22.01
63689;BMP280;54895;40.928;14.480;2022-11-03T07:35:01;101945.66;;;22.50
63689;BMP280;54895;40.928;14.480;2022-11-03T07:37:28;101958.28;;;23.02
63689;BMP280;54895;40.928;14.480;2022-11-03T07:39:55;101949.00;;;23.05
63689;BMP280;54895;40.928;14.480;2022-11-03T07:42:23;101948.44;;;22.97
63689;BMP280;54895;40.928;14.480;2022-11-03T07:44:52;101950.13;;;23.02
63689;BMP280;54895;40.928;14.480;2022-11-03T07:47:24;101955.00;;;22.94
63689;BMP280;54895;40.928;14.480;2022-11-03T07:49:50;101961.88;;;23.14
63689;BMP280;54895;40.928;14.480;2022-11-03T07:52:20;101962.56;;;23.15
63689;BMP280;54895;40.928;14.480;2022-11-03T07:54:47;101966.41;;;23.31
63689;BMP280;54895;40.928;14.480;2022-11-03T07:59:41;101960.66;;;23.55
63689;BMP280;54895;40.928;14.480;2022-11-03T08:04:53;101972.47;;;24.09
63689;BMP280;54895;40.928;14.480;2022-11-03T08:07:19;101975.13;;;24.18
63689;BMP280;54895;40.928;14.480;2022-11-03T08:09:45;101973.28;;;24.42
63689;BMP280;54895;40.928;14.480;2022-11-03T08:12:11;101983.66;;;24.34
63689;BMP280;54895;40.928;14.480;2022-11-03T08:14:37;101975.28;;;24.51
63689;BMP280;54895;40.928;14.480;2022-11-03T08:17:05;101978.09;;;24.53
63689;BMP280;54895;40.928;14.480;2022-11-03T08:19:31;101978.66;;;24.61
63689;BMP280;54895;40.928;14.480;2022-11-03T08:21:57;101983.72;;;25.19
63689;BMP280;54895;40.928;14.480;2022-11-03T08:24:23;101976.25;;;25.08
63689;BMP280;54895;40.928;14.480;2022-11-03T08:26:49;101974.53;;;25.03
63689;BMP280;54895;40.928;14.480;2022-11-03T08:29:15;101972.41;;;25.46
63689;BMP280;54895;40.928;14.480;2022-11-03T08:31:46;101966.22;;;25.34
63689;BMP280;54895;40.928;14.480;2022-11-03T08:34:12;101979.03;;;25.31
63689;BMP280;54895;40.928;14.480;2022-11-03T08:36:38;101975.28;;;25.71
63689;BMP280;54895;40.928;14.480;2022-11-03T08:39:04;101974.84;;;25.86
63689;BMP280;54895;40.928;14.480;2022-11-03T08:41:30;101979.22;;;25.91
63689;BMP280;54895;40.928;14.480;2022-11-03T08:43:59;101975.06;;;25.67
63689;BMP280;54895;40.928;14.480;2022-11-03T08:46:25;101973.16;;;25.58
63689;BMP280;54895;40.928;14.480;2022-11-03T08:48:51;101972.44;;;25.80
63689;BMP280;54895;40.928;14.480;2022-11-03T08:51:18;101965.13;;;25.94
63689;BMP280;54895;40.928;14.480;2022-11-03T08:53:44;101971.25;;;26.06
63689;BMP280;54895;40.928;14.480;2022-11-03T08:56:11;101972.19;;;26.22
63689;BMP280;54895;40.928;14.480;2022-11-03T08:58:37;101966.97;;;26.03
63689;BMP280;54895;40.928;14.480;2022-11-03T09:01:03;101959.75;;;25.96
63689;BMP280;54895;40.928;14.480;2022-11-03T09:03:29;101968.88;;;26.12
63689;BMP280;54895;40.928;14.480;2022-11-03T09:05:56;101960.81;;;25.91
63689;BMP280;54895;40.928;14.480;2022-11-03T09:08:22;101956.28;;;26.19
63689;BMP280;54895;40.928;14.480;2022-11-03T09:10:48;101961.94;;;26.34
63689;BMP280;54895;40.928;14.480;2022-11-03T09:13:14;101965.69;;;26.52
63689;BMP280;54895;40.928;14.480;2022-11-03T09:15:40;101955.16;;;26.71
63689;BMP280;54895;40.928;14.480;2022-11-03T09:18:06;101952.19;;;26.67
63689;BMP280;54895;40.928;14.480;2022-11-03T09:20:33;101956.44;;;26.95
63689;BMP280;54895;40.928;14.480;2022-11-03T09:22:59;101967.16;;;26.30
63689;BMP280;54895;40.928;14.480;2022-11-03T09:25:25;101966.38;;;26.05
63689;BMP280;54895;40.928;14.480;2022-11-03T09:27:51;101960.38;;;26.79
63689;BMP280;54895;40.928;14.480;2022-11-03T09:30:17;101952.88;;;26.79
63689;BMP280;54895;40.928;14.480;2022-11-03T09:32:43;101955.44;;;26.64
63689;BMP280;54895;40.928;14.480;2022-11-03T09:35:11;101956.34;;;26.68
63689;BMP280;54895;40.928;14.480;2022-11-03T09:37:39;101951.56;;;27.19
63689;BMP280;54895;40.928;14.480;2022-11-03T09:40:06;101947.63;;;27.22
63689;BMP280;54895;40.928;14.480;2022-11-03T09:42:32;101949.31;;;27.67
63689;BMP280;54895;40.928;14.480;2022-11-03T09:44:59;101950.06;;;27.16
63689;BMP280;54895;40.928;14.480;2022-11-03T09:47:32;101952.34;;;27.08
63689;BMP280;54895;40.928;14.480;2022-11-03T09:50:00;101947.97;;;27.28
63689;BMP280;54895;40.928;14.480;2022-11-03T09:52:26;101952.59;;;26.62
63689;BMP280;54895;40.928;14.480;2022-11-03T09:54:53;101949.56;;;27.33
63689;BMP280;54895;40.928;14.480;2022-11-03T09:57:22;101953.91;;;28.05
63689;BMP280;54895;40.928;14.480;2022-11-03T09:59:49;101947.47;;;28.27
63689;BMP280;54895;40.928;14.480;2022-11-03T10:04:44;101941.88;;;27.96
63689;BMP280;54895;40.928;14.480;2022-11-03T10:07:10;101938.56;;;27.84
63689;BMP280;54895;40.928;14.480;2022-11-03T10:09:37;101932.22;;;28.09
63689;BMP280;54895;40.928;14.480;2022-11-03T10:12:04;101940.56;;;27.97
63689;BMP280;54895;40.928;14.480;2022-11-03T10:14:31;101921.72;;;27.90
63689;BMP280;54895;40.928;14.480;2022-11-03T10:16:57;101921.41;;;27.97
63689;BMP280;54895;40.928;14.480;2022-11-03T10:19:27;101912.91;;;27.91
63689;BMP280;54895;40.928;14.480;2022-11-03T10:21:53;101916.16;;;27.34
63689;BMP280;54895;40.928;14.480;2022-11-03T10:24:19;101905.41;;;27.78
63689;BMP280;54895;40.928;14.480;2022-11-03T10:26:47;101905.94;;;27.48
63689;BMP280;54895;40.928;14.480;2022-11-03T10:29:18;101909.09;;;27.42
63689;BMP280;54895;40.928;14.480;2022-11-03T10:31:45;101899.69;;;26.94
63689;BMP280;54895;40.928;14.480;2022-11-03T10:34:31;101897.97;;;26.62
63689;BMP280;54895;40.928;14.480;2022-11-03T10:39:31;101893.31;;;26.51
63689;BMP280;54895;40.928;14.480;2022-11-03T10:41:57;101895.72;;;26.58
63689;BMP280;54895;40.928;14.480;2022-11-03T10:44:27;101895.09;;;26.10
63689;BMP280;54895;40.928;14.480;2022-11-03T10:46:55;101888.59;;;25.92
63689;BMP280;54895;40.928;14.480;2022-11-03T10:49:21;101884.09;;;25.85
63689;BMP280;54895;40.928;14.480;2022-11-03T10:51:48;101872.69;;;26.00
63689;BMP280;54895;40.928;14.480;2022-11-03T10:54:16;101876.03;;;26.35
63689;BMP280;54895;40.928;14.480;2022-11-03T10:56:43;101871.28;;;26.74
63689;BMP280;54895;40.928;14.480;2022-11-03T10:59:53;101865.50;;;26.93
63689;BMP280;54895;40.928;14.480;2022-11-03T11:02:00;101862.28;;;27.10
63689;BMP280;54895;40.928;14.480;2022-11-03T11:04:27;101863.06;;;27.79
63689;BMP280;54895;40.928;14.480;2022-11-03T11:06:53;101857.13;;;28.27
63689;BMP280;54895;40.928;14.480;2022-11-03T11:09:23;101856.25;;;28.23
63689;BMP280;54895;40.928;14.480;2022-11-03T11:16:55;101840.06;;;28.29
63689;BMP280;54895;40.928;14.480;2022-11-03T11:19:22;101841.97;;;28.24
63689;BMP280;54895;40.928;14.480;2022-11-03T11:21:56;101835.16;;;28.25
63689;BMP280;54895;40.928;14.480;2022-11-03T11:24:57;101841.69;;;28.18
63689;BMP280;54895;40.928;14.480;2022-11-03T11:30:02;101831.63;;;28.23
63689;BMP280;54895;40.928;14.480;2022-11-03T11:35:09;101834.69;;;28.15
63689;BMP280;54895;40.928;14.480;2022-11-03T11:37:36;101826.19;;;28.69
63689;BMP280;54895;40.928;14.480;2022-11-03T11:40:09;101830.28;;;27.66
63689;BMP280;54895;40.928;14.480;2022-11-03T11:42:48;101822.38;;;27.45
63689;BMP280;54895;40.928;14.480;2022-11-03T11:48:15;101812.66;;;26.75
63689;BMP280;54895;40.928;14.480;2022-11-03T11:50:42;101809.22;;;26.61
63689;BMP280;54895;40.928;14.480;2022-11-03T11:53:09;101804.53;;;26.77
63689;BMP280;54895;40.928;14.480;2022-11-03T11:58:16;101793.06;;;26.92
63689;BMP280;54895;40.928;14.480;2022-11-03T12:00:50;101789.31;;;26.99
63689;BMP280;54895;40.928;14.480;2022-11-03T12:03:17;101788.41;;;27.35
63689;BMP280;54895;40.928;14.480;2022-11-03T12:05:47;101775.59;;;27.52
63689;BMP280;54895;40.928;14.480;2022-11-03T12:08:18;101776.16;;;27.22
63689;BMP280;54895;40.928;14.480;2022-11-03T12:10:52;101775.13;;;27.29
63689;BMP280;54895;40.928;14.480;2022-11-03T12:16:04;101777.75;;;28.27
63689;BMP280;54895;40.928;14.480;2022-11-03T12:21:10;101775.91;;;27.87
63689;BMP280;54895;40.928;14.480;2022-11-03T12:23:40;101774.38;;;28.13
63689;BMP280;54895;40.928;14.480;2022-11-03T12:26:17;101771.66;;;27.84
63689;BMP280;54895;40.928;14.480;2022-11-03T12:28:44;101756.97;;;27.78
63689;BMP280;54895;40.928;14.480;2022-11-03T12:31:11;101757.00;;;27.49
63689;BMP280;54895;40.928;14.480;2022-11-03T12:33:38;101745.16;;;27.73
63689;BMP280;54895;40.928;14.480;2022-11-03T12:36:05;101743.59;;;27.55
63689;BMP280;54895;40.928;14.480;2022-11-03T12:38:32;101730.84;;;27.75
63689;BMP280;54895;40.928;14.480;2022-11-03T12:40:59;101735.81;;;27.49
63689;BMP280;54895;40.928;14.480;2022-11-03T12:43:49;101730.78;;;27.31
63689;BMP280;54895;40.928;14.480;2022-11-03T12:46:17;101727.69;;;26.96
63689;BMP280;54895;40.928;14.480;2022-11-03T12:48:44;101724.31;;;27.24
63689;BMP280;54895;40.928;14.480;2022-11-03T12:51:22;101710.56;;;27.64
63689;BMP280;54895;40.928;14.480;2022-11-03T12:53:59;101705.72;;;27.49
63689;BMP280;54895;40.928;14.480;2022-11-03T12:56:27;101714.94;;;28.00
63689;BMP280;54895;40.928;14.480;2022-11-03T13:01:21;101711.06;;;28.52
63689;BMP280;54895;40.928;14.480;2022-11-03T13:03:48;101706.38;;;28.23
63689;BMP280;54895;40.928;14.480;2022-11-03T13:06:15;101704.22;;;27.75
63689;BMP280;54895;40.928;14.480;2022-11-03T13:08:41;101701.06;;;27.96
63689;BMP280;54895;40.928;14.480;2022-11-03T13:11:09;101705.16;;;27.66
63689;BMP280;54895;40.928;14.480;2022-11-03T13:13:54;101712.84;;;27.70
63689;BMP280;54895;40.928;14.480;2022-11-03T13:16:22;101713.03;;;28.18
63689;BMP280;54895;40.928;14.480;2022-11-03T13:18:49;101700.84;;;27.61
63689;BMP280;54895;40.928;14.480;2022-11-03T13:21:16;101706.81;;;27.16
63689;BMP280;54895;40.928;14.480;2022-11-03T13:23:43;101703.53;;;27.33
63689;BMP280;54895;40.928;14.480;2022-11-03T13:26:13;101703.09;;;27.51
63689;BMP280;54895;40.928;14.480;2022-11-03T13:28:39;101700.88;;;27.77
63689;BMP280;54895;40.928;14.480;2022-11-03T13:31:06;101699.81;;;27.68
63689;BMP280;54895;40.928;14.480;2022-11-03T13:33:34;101701.22;;;27.27
63689;BMP280;54895;40.928;14.480;2022-11-03T13:36:02;101694.34;;;27.26
63689;BMP280;54895;40.928;14.480;2022-11-03T13:38:28;101697.38;;;27.32
63689;BMP280;54895;40.928;14.480;2022-11-03T13:40:55;101686.38;;;27.17
63689;BMP280;54895;40.928;14.480;2022-11-03T13:43:22;101692.47;;;27.02
63689;BMP280;54895;40.928;14.480;2022-11-03T13:45:49;101688.88;;;27.68
63689;BMP280;54895;40.928;14.480;2022-11-03T13:48:16;101687.19;;;27.48
63689;BMP280;54895;40.928;14.480;2022-11-03T13:50:45;101697.94;;;27.02
63689;BMP280;54895;40.928;14.480;2022-11-03T13:53:15;101685.63;;;27.01
63689;BMP280;54895;40.928;14.480;2022-11-03T13:55:42;101679.41;;;27.42
63689;BMP280;54895;40.928;14.480;2022-11-03T13:58:09;101683.72;;;27.61
63689;BMP280;54895;40.928;14.480;2022-11-03T14:00:37;101678.16;;;27.30
63689;BMP280;54895;40.928;14.480;2022-11-03T14:03:04;101676.09;;;27.31
63689;BMP280;54895;40.928;14.480;2022-11-03T14:05:31;101675.66;;;27.21
63689;BMP280;54895;40.928;14.480;2022-11-03T14:07:58;101687.84;;;26.91
63689;BMP280;54895;40.928;14.480;2022-11-03T14:10:25;101690.84;;;26.97
63689;BMP280;54895;40.928;14.480;2022-11-03T14:12:52;101680.56;;;26.82
63689;BMP280;54895;40.928;14.480;2022-11-03T14:15:19;101685.81;;;26.78
63689;BMP280;54895;40.928;14.480;2022-11-03T14:17:46;101680.31;;;27.05
63689;BMP280;54895;40.928;14.480;2022-11-03T14:20:13;101689.84;;;26.77
63689;BMP280;54895;40.928;14.480;2022-11-03T14:22:41;101685.25;;;27.08
63689;BMP280;54895;40.928;14.480;2022-11-03T14:25:08;101686.09;;;26.84
63689;BMP280;54895;40.928;14.480;2022-11-03T14:27:36;101686.31;;;26.74
63689;BMP280;54895;40.928;14.480;2022-11-03T14:30:03;101682.38;;;26.91
63689;BMP280;54895;40.928;14.480;2022-11-03T14:32:30;101677.06;;;27.08
63689;BMP280;54895;40.928;14.480;2022-11-03T14:34:57;101676.00;;;26.59
63689;BMP280;54895;40.928;14.480;2022-11-03T14:37:24;101681.13;;;26.94
63689;BMP280;54895;40.928;14.480;2022-11-03T14:39:51;101683.16;;;26.80
63689;BMP280;54895;40.928;14.480;2022-11-03T14:42:19;101682.22;;;27.02
63689;BMP280;54895;40.928;14.480;2022-11-03T14:44:47;101677.81;;;26.68
63689;BMP280;54895;40.928;14.480;2022-11-03T14:47:17;101682.16;;;26.87
63689;BMP280;54895;40.928;14.480;2022-11-03T14:49:47;101684.81;;;26.58
63689;BMP280;54895;40.928;14.480;2022-11-03T14:52:15;101675.06;;;26.55
63689;BMP280;54895;40.928;14.480;2022-11-03T14:54:42;101675.44;;;26.36
63689;BMP280;54895;40.928;14.480;2022-11-03T14:57:09;101678.84;;;26.48
63689;BMP280;54895;40.928;14.480;2022-11-03T14:59:39;101669.81;;;26.59
63689;BMP280;54895;40.928;14.480;2022-11-03T15:02:08;101672.03;;;27.03
63689;BMP280;54895;40.928;14.480;2022-11-03T15:04:35;101664.75;;;26.40
63689;BMP280;54895;40.928;14.480;2022-11-03T15:07:02;101666.59;;;26.11
63689;BMP280;54895;40.928;14.480;2022-11-03T15:09:29;101661.94;;;26.38
63689;BMP280;54895;40.928;14.480;2022-11-03T15:11:56;101652.63;;;26.43
63689;BMP280;54895;40.928;14.480;2022-11-03T15:14:22;101655.94;;;26.28
63689;BMP280;54895;40.928;14.480;2022-11-03T15:16:49;101660.88;;;25.80
63689;BMP280;54895;40.928;14.480;2022-11-03T15:19:16;101651.16;;;25.77